createdAt,value
2018-03-31T00:00:59.911Z,3.83
2018-03-31T00:03:27.020Z,3.55
2018-03-31T00:05:55.288Z,3.20
2018-03-31T00:08:22.431Z,3.90
2018-03-31T00:10:53.903Z,4.30
2018-03-31T00:13:21.020Z,4.45
2018-03-31T00:15:48.160Z,4.28
2018-03-31T00:18:16.773Z,4.12
2018-03-31T00:20:43.892Z,3.60
2018-03-31T00:23:11.814Z,3.75
2018-03-31T00:25:38.966Z,3.87
2018-03-31T00:28:06.429Z,3.40
2018-03-31T00:30:33.580Z,3.60
2018-03-31T00:33:01.422Z,3.30
2018-03-31T00:35:33.425Z,3.50
2018-03-31T00:38:00.785Z,3.15
2018-03-31T00:40:28.188Z,3.25
2018-03-31T00:42:55.353Z,2.83
2018-03-31T00:45:28.952Z,2.97
2018-03-31T00:47:56.056Z,2.95
2018-03-31T00:50:23.986Z,3.00
2018-03-31T00:52:53.531Z,3.03
2018-03-31T00:55:21.375Z,3.30
2018-03-31T00:57:48.535Z,3.10
2018-03-31T01:00:16.666Z,3.40
2018-03-31T01:02:46.464Z,2.83
2018-03-31T01:05:13.651Z,2.90
2018-03-31T01:07:40.835Z,3.35
2018-03-31T01:10:08.699Z,3.17
2018-03-31T01:12:36.860Z,3.60
2018-03-31T01:15:05.096Z,3.00
2018-03-31T01:17:32.214Z,3.30
2018-03-31T01:20:00.876Z,3.10
2018-03-31T01:22:27.997Z,3.37
2018-03-31T01:24:55.108Z,3.78
2018-03-31T01:27:22.224Z,4.03
2018-03-31T01:29:50.479Z,3.72
2018-03-31T01:32:17.627Z,3.90
2018-03-31T01:34:44.795Z,4.00
2018-03-31T01:37:11.905Z,3.70
2018-03-31T01:39:40.359Z,3.67
2018-03-31T01:42:07.741Z,3.67
2018-03-31T01:44:34.868Z,3.75
2018-03-31T01:47:01.999Z,3.25
2018-03-31T01:49:29.515Z,3.80
2018-03-31T01:51:58.418Z,3.45
2018-03-31T01:54:25.503Z,3.60
2018-03-31T01:56:53.480Z,3.37
2018-03-31T01:59:21.706Z,3.75
2018-03-31T02:01:50.249Z,3.47
2018-03-31T02:04:17.403Z,3.45
2018-03-31T02:06:50.939Z,3.35
2018-03-31T02:09:18.688Z,3.92
2018-03-31T02:11:50.333Z,3.75
2018-03-31T02:14:18.531Z,4.10
2018-03-31T02:16:49.795Z,4.47
2018-03-31T02:19:17.704Z,4.40
2018-03-31T02:21:44.802Z,4.70
2018-03-31T02:24:13.336Z,4.72
2018-03-31T02:26:40.464Z,4.68
2018-03-31T02:29:10.547Z,4.80
2018-03-31T02:31:38.499Z,4.60
2018-03-31T02:34:05.634Z,4.75
2018-03-31T02:36:32.783Z,4.70
2018-03-31T02:38:59.908Z,5.25
2018-03-31T02:41:27.008Z,4.80
2018-03-31T02:43:54.145Z,4.93
2018-03-31T02:46:21.807Z,5.45
2018-03-31T02:48:48.920Z,5.20
2018-03-31T02:51:15.996Z,5.43
2018-03-31T02:53:43.122Z,5.35
2018-03-31T02:56:10.646Z,5.50
2018-03-31T02:58:38.290Z,6.03
2018-03-31T03:01:06.426Z,5.72
2018-03-31T03:03:35.394Z,6.47
2018-03-31T03:06:02.492Z,6.10
2018-03-31T03:08:32.760Z,6.20
2018-03-31T03:11:00.052Z,6.20
2018-03-31T03:13:27.379Z,6.62
2018-03-31T03:15:54.721Z,6.22
2018-03-31T03:18:22.289Z,6.10
2018-03-31T03:20:49.419Z,6.72
2018-03-31T03:23:16.836Z,6.50
2018-03-31T03:25:43.947Z,6.40
2018-03-31T03:28:11.633Z,6.68
2018-03-31T03:30:38.692Z,6.40
2018-03-31T03:33:05.820Z,6.50
2018-03-31T03:35:32.933Z,6.57
2018-03-31T03:38:00.052Z,7.03
2018-03-31T03:40:27.143Z,7.28
2018-03-31T03:42:54.277Z,6.60
2018-03-31T03:45:21.457Z,7.82
2018-03-31T03:47:49.148Z,7.20
2018-03-31T03:50:16.992Z,7.90
2018-03-31T03:52:44.140Z,7.53
2018-03-31T03:55:11.660Z,8.07
2018-03-31T03:57:38.751Z,8.20
2018-03-31T04:00:05.966Z,7.93
2018-03-31T04:02:33.851Z,7.93
2018-03-31T04:05:00.991Z,7.45
2018-03-31T04:07:28.630Z,7.95
2018-03-31T04:09:55.806Z,8.68
2018-03-31T04:12:23.170Z,8.35
2018-03-31T04:14:50.267Z,8.40
2018-03-31T04:17:17.961Z,8.70
2018-03-31T04:23:00.103Z,8.23
2018-03-31T04:25:27.259Z,8.20
2018-03-31T04:27:55.771Z,8.60
2018-03-31T04:30:22.886Z,8.98
2018-03-31T04:32:50.382Z,8.65
2018-03-31T04:37:51.382Z,9.00
2018-03-31T04:40:18.504Z,9.15
2018-03-31T04:42:46.382Z,8.50
2018-03-31T04:48:29.562Z,10.32
2018-03-31T04:50:57.154Z,10.57
2018-03-31T04:53:24.618Z,10.98
2018-03-31T04:55:51.687Z,10.98
2018-03-31T04:58:19.908Z,11.10
2018-03-31T05:00:47.532Z,11.48
2018-03-31T05:03:14.611Z,11.07
2018-03-31T05:05:41.722Z,11.15
2018-03-31T05:08:08.836Z,10.18
2018-03-31T05:10:35.938Z,10.35
2018-03-31T05:13:03.424Z,10.48
2018-03-31T05:15:30.849Z,11.43
2018-03-31T05:17:58.198Z,12.75
2018-03-31T05:20:25.276Z,11.00
2018-03-31T05:22:52.390Z,10.50
2018-03-31T05:25:19.886Z,9.73
2018-03-31T05:27:47.020Z,11.65
2018-03-31T05:30:14.510Z,11.50
2018-03-31T05:32:41.645Z,11.18
2018-03-31T05:35:09.795Z,12.20
2018-03-31T05:37:51.099Z,15.07
2018-03-31T05:40:18.197Z,16.83
2018-03-31T05:42:45.303Z,13.85
2018-03-31T05:45:12.411Z,19.95
2018-03-31T05:47:41.520Z,13.35
2018-03-31T05:50:10.592Z,11.98
2018-03-31T05:52:38.461Z,13.00
2018-03-31T05:55:05.572Z,9.77
2018-03-31T05:57:33.020Z,9.50
2018-03-31T06:00:02.038Z,9.60
2018-03-31T06:02:37.132Z,8.90
2018-03-31T06:05:04.574Z,9.98
2018-03-31T06:07:32.275Z,9.85
2018-03-31T06:09:59.626Z,7.97
2018-03-31T06:12:26.769Z,7.70
2018-03-31T06:15:01.052Z,8.80
2018-03-31T06:17:30.644Z,8.75
2018-03-31T06:20:11.988Z,8.25
2018-03-31T06:22:39.435Z,9.40
2018-03-31T06:27:42.207Z,7.43
2018-03-31T06:30:13.924Z,6.87
2018-03-31T06:32:44.400Z,9.68
2018-03-31T06:37:44.378Z,11.50
2018-03-31T06:40:16.021Z,6.75
2018-03-31T06:42:48.417Z,6.20
2018-03-31T06:45:16.273Z,5.72
2018-03-31T06:50:41.223Z,6.40
2018-03-31T06:53:23.690Z,5.22
2018-03-31T06:55:51.604Z,4.82
2018-03-31T06:58:19.143Z,4.60
2018-03-31T07:00:58.359Z,4.80
2018-03-31T07:03:26.226Z,4.20
2018-03-31T07:05:54.131Z,4.22
2018-03-31T07:08:22.414Z,3.55
2018-03-31T07:10:49.510Z,3.60
2018-03-31T07:13:17.795Z,3.70
2018-03-31T07:15:45.700Z,4.03
2018-03-31T07:18:13.381Z,4.32
2018-03-31T07:20:41.389Z,5.20
2018-03-31T07:23:09.296Z,5.10
2018-03-31T07:25:36.490Z,4.95
2018-03-31T07:28:03.596Z,5.15
2018-03-31T07:30:30.979Z,5.55
2018-03-31T07:32:58.084Z,5.47
2018-03-31T07:35:25.424Z,5.30
2018-03-31T07:37:54.248Z,3.47
2018-03-31T07:40:24.452Z,4.25
2018-03-31T07:42:51.777Z,4.80
2018-03-31T07:45:18.852Z,4.27
2018-03-31T07:47:45.944Z,4.53
2018-03-31T07:50:13.054Z,5.20
2018-03-31T07:52:40.159Z,4.60
2018-03-31T07:55:08.334Z,5.57
2018-03-31T07:57:37.527Z,5.17
2018-03-31T08:00:05.777Z,4.80
2018-03-31T08:02:33.541Z,5.73
2018-03-31T08:05:01.803Z,4.70
2018-03-31T08:07:28.920Z,5.30
2018-03-31T08:09:56.875Z,4.90
2018-03-31T08:12:24.314Z,4.00
2018-03-31T08:14:51.438Z,3.73
2018-03-31T08:17:18.564Z,3.50
2018-03-31T08:19:46.314Z,4.07
2018-03-31T08:22:13.471Z,3.63
2018-03-31T08:24:40.624Z,4.37
2018-03-31T08:27:08.551Z,3.60
2018-03-31T08:29:35.686Z,3.80
2018-03-31T08:32:02.793Z,3.40
2018-03-31T08:34:30.015Z,3.63
2018-03-31T08:36:57.124Z,3.70
2018-03-31T08:39:39.107Z,4.70
2018-03-31T08:42:06.190Z,4.30
2018-03-31T08:44:33.292Z,3.80
2018-03-31T08:47:00.913Z,4.03
2018-03-31T08:49:29.131Z,3.80
2018-03-31T08:51:56.284Z,4.40
2018-03-31T08:54:23.394Z,4.23
2018-03-31T08:56:53.973Z,3.40
2018-03-31T08:59:23.285Z,3.10
2018-03-31T09:01:50.426Z,3.20
2018-03-31T09:04:17.508Z,3.23
2018-03-31T09:06:46.041Z,3.07
2018-03-31T09:09:14.038Z,3.10
2018-03-31T09:11:41.176Z,3.03
2018-03-31T09:14:08.306Z,3.20
2018-03-31T09:16:35.426Z,2.80
2018-03-31T09:19:03.418Z,3.20
2018-03-31T09:21:30.926Z,3.10
2018-03-31T09:23:58.054Z,3.40
2018-03-31T09:26:25.744Z,3.17
2018-03-31T09:28:52.865Z,3.50
2018-03-31T09:31:20.255Z,3.70
2018-03-31T09:33:48.115Z,3.53
2018-03-31T09:36:16.579Z,3.40
2018-03-31T09:38:43.684Z,4.00
2018-03-31T09:41:13.264Z,3.63
2018-03-31T09:43:44.244Z,3.40
2018-03-31T09:46:11.999Z,3.90
2018-03-31T09:48:40.799Z,3.80
2018-03-31T09:51:07.921Z,3.73
2018-03-31T09:53:36.538Z,3.67
2018-03-31T09:56:04.243Z,3.47
2018-03-31T09:58:31.674Z,3.70
2018-03-31T10:01:04.243Z,3.57
2018-03-31T10:03:31.740Z,4.70
2018-03-31T10:06:00.785Z,3.70
2018-03-31T10:08:31.238Z,3.40
2018-03-31T10:10:58.351Z,3.10
2018-03-31T10:13:28.124Z,3.20
2018-03-31T10:15:56.008Z,6.93
2018-03-31T10:18:23.631Z,8.37
2018-03-31T10:20:50.756Z,4.00
2018-03-31T10:23:18.390Z,3.87
2018-03-31T10:25:45.507Z,3.73
2018-03-31T10:28:13.389Z,3.43
2018-03-31T10:30:40.489Z,3.77
2018-03-31T10:33:09.565Z,3.73
2018-03-31T10:35:37.233Z,3.10
2018-03-31T10:38:04.345Z,4.00
2018-03-31T10:40:32.149Z,3.77
2018-03-31T10:42:59.275Z,3.63
2018-03-31T10:45:26.465Z,3.70
2018-03-31T10:47:54.584Z,3.40
2018-03-31T10:50:21.686Z,3.10
2018-03-31T10:53:03.643Z,3.23
2018-03-31T10:55:30.745Z,3.17
2018-03-31T10:57:58.905Z,3.10
2018-03-31T11:00:26.003Z,3.43
2018-03-31T11:02:53.851Z,3.40
2018-03-31T11:05:21.696Z,3.30
2018-03-31T11:07:49.803Z,3.40
2018-03-31T11:10:16.948Z,3.03
2018-03-31T11:12:54.803Z,3.47
2018-03-31T11:15:21.848Z,2.90
2018-03-31T11:17:48.967Z,2.37
2018-03-31T11:20:16.103Z,2.80
2018-03-31T11:22:43.212Z,2.50
2018-03-31T11:25:14.053Z,2.30
2018-03-31T11:27:41.206Z,2.67
2018-03-31T11:30:08.290Z,2.50
2018-03-31T11:32:35.405Z,2.20
2018-03-31T11:35:02.492Z,2.37
2018-03-31T11:37:36.196Z,2.37
2018-03-31T11:40:03.311Z,2.30
2018-03-31T11:42:30.473Z,3.13
2018-03-31T11:44:58.371Z,3.93
2018-03-31T11:47:25.494Z,3.10
2018-03-31T11:49:52.595Z,2.40
2018-03-31T11:52:20.698Z,2.20
2018-03-31T11:54:47.824Z,5.80
2018-03-31T11:57:14.937Z,2.50
2018-03-31T11:59:42.035Z,3.27
2018-03-31T12:02:09.178Z,2.20
2018-03-31T12:04:36.263Z,1.90
2018-03-31T12:07:04.300Z,2.80
2018-03-31T12:09:31.371Z,2.20
2018-03-31T12:11:58.537Z,2.33
2018-03-31T12:14:26.421Z,1.90
2018-03-31T12:16:53.565Z,2.10
2018-03-31T12:19:20.634Z,2.07
2018-03-31T12:21:47.708Z,2.03
2018-03-31T12:24:14.858Z,2.70
2018-03-31T12:26:41.956Z,2.27
2018-03-31T12:29:09.059Z,1.90
2018-03-31T12:31:47.009Z,2.80
2018-03-31T12:34:14.135Z,1.87
2018-03-31T12:36:42.064Z,1.60
2018-03-31T12:39:09.177Z,1.70
2018-03-31T12:41:39.351Z,1.77
2018-03-31T12:44:06.470Z,1.50
2018-03-31T12:46:33.580Z,1.93
2018-03-31T12:49:00.683Z,1.60
2018-03-31T12:51:27.796Z,1.90
2018-03-31T12:53:55.668Z,1.67
2018-03-31T12:56:22.746Z,1.80
2018-03-31T12:58:49.813Z,1.73
2018-03-31T13:01:17.709Z,1.73
2018-03-31T13:03:45.713Z,1.97
2018-03-31T13:06:17.831Z,1.93
2018-03-31T13:08:45.550Z,1.80
2018-03-31T13:11:12.690Z,2.17
2018-03-31T13:13:40.174Z,1.83
2018-03-31T13:16:07.342Z,1.63
2018-03-31T13:18:35.253Z,1.90
2018-03-31T13:21:02.429Z,1.80
2018-03-31T13:23:29.694Z,1.80
2018-03-31T13:25:56.870Z,1.77
2018-03-31T13:28:24.739Z,2.37
2018-03-31T13:30:51.899Z,2.20
2018-03-31T13:33:19.031Z,2.03
2018-03-31T13:35:55.410Z,2.20
2018-03-31T13:38:28.829Z,2.30
2018-03-31T13:41:00.614Z,1.90
2018-03-31T13:43:28.200Z,2.03
2018-03-31T13:45:56.287Z,2.20
2018-03-31T13:48:24.175Z,2.50
2018-03-31T13:50:51.360Z,1.80
2018-03-31T13:53:18.494Z,2.50
2018-03-31T13:55:45.642Z,1.87
2018-03-31T13:58:16.333Z,1.87
2018-03-31T14:00:46.312Z,2.10
2018-03-31T14:03:19.466Z,2.13
2018-03-31T14:05:46.578Z,2.17
2018-03-31T14:08:19.999Z,2.40
2018-03-31T14:10:54.770Z,2.50
2018-03-31T14:13:21.903Z,2.60
2018-03-31T14:15:50.010Z,2.30
2018-03-31T14:18:17.101Z,2.17
2018-03-31T14:21:02.957Z,2.10
2018-03-31T14:23:30.477Z,2.27
2018-03-31T14:25:57.642Z,2.30
2018-03-31T14:28:24.861Z,2.53
2018-03-31T14:30:52.875Z,2.50
2018-03-31T14:33:20.165Z,2.50
2018-03-31T14:35:47.560Z,2.30
2018-03-31T14:38:26.478Z,2.50
2018-03-31T14:40:54.691Z,2.83
2018-03-31T14:43:24.427Z,2.50
2018-03-31T14:45:51.582Z,2.70
2018-03-31T14:48:20.502Z,2.60
2018-03-31T14:50:48.926Z,2.20
2018-03-31T14:53:18.058Z,2.40
2018-03-31T14:55:45.443Z,2.67
2018-03-31T14:58:12.912Z,1.97
2018-03-31T15:00:41.343Z,1.70
2018-03-31T15:03:09.224Z,1.80
2018-03-31T15:05:36.370Z,2.10
2018-03-31T15:08:03.818Z,2.10
2018-03-31T15:10:32.327Z,1.93
2018-03-31T15:13:00.197Z,1.90
2018-03-31T15:15:27.471Z,1.80
2018-03-31T15:17:54.602Z,2.00
2018-03-31T15:20:22.573Z,1.80
2018-03-31T15:22:50.069Z,2.17
2018-03-31T15:25:17.313Z,2.57
2018-03-31T15:27:45.276Z,2.20
2018-03-31T15:30:12.592Z,1.70
2018-03-31T15:32:39.992Z,2.23
2018-03-31T15:35:09.004Z,2.00
2018-03-31T15:37:41.378Z,1.90
2018-03-31T15:40:08.877Z,2.60
2018-03-31T15:42:37.107Z,1.93
2018-03-31T15:45:05.509Z,2.13
2018-03-31T15:47:32.687Z,1.97
2018-03-31T15:52:35.472Z,2.30
2018-03-31T16:08:06.190Z,2.30
2018-03-31T16:10:33.322Z,2.93
2018-03-31T16:13:01.470Z,2.50
2018-03-31T16:15:29.356Z,2.10
2018-03-31T16:17:56.581Z,2.70
2018-03-31T16:20:23.729Z,2.80
2018-03-31T16:22:51.750Z,2.70
2018-03-31T16:25:26.257Z,2.63
2018-03-31T16:33:56.197Z,2.93
2018-03-31T16:36:33.440Z,2.60
2018-03-31T16:39:02.510Z,2.60
2018-03-31T16:41:29.746Z,2.57
2018-03-31T16:43:57.201Z,2.80
2018-03-31T16:46:48.436Z,3.00
2018-03-31T16:59:07.658Z,2.40
2018-03-31T17:01:35.101Z,2.20
2018-03-31T17:17:03.198Z,2.50
2018-03-31T17:19:30.425Z,2.57
2018-03-31T17:35:23.569Z,2.27
2018-03-31T17:37:50.764Z,2.30
2018-03-31T17:40:18.669Z,2.57
2018-03-31T17:42:45.800Z,2.60
2018-03-31T17:45:12.915Z,3.53
2018-03-31T17:47:40.003Z,5.57
2018-03-31T17:50:07.215Z,4.50
2018-03-31T17:52:34.321Z,4.53
2018-03-31T17:55:01.497Z,4.57
2018-03-31T17:57:28.616Z,5.90
2018-03-31T17:59:55.788Z,4.70
2018-03-31T18:02:22.913Z,3.50
2018-03-31T18:04:50.517Z,4.10
2018-03-31T18:07:20.951Z,3.00
2018-03-31T18:09:48.065Z,3.10
2018-03-31T18:12:15.226Z,3.93
2018-03-31T18:14:42.356Z,3.55
2018-03-31T18:17:22.296Z,3.20
2018-03-31T18:19:49.402Z,3.30
2018-03-31T18:22:16.602Z,2.90
2018-03-31T18:24:45.014Z,2.20
2018-03-31T18:27:12.152Z,2.80
2018-03-31T18:32:56.125Z,2.37
2018-03-31T18:35:41.902Z,18.10
2018-03-31T18:38:09.036Z,10.48
2018-03-31T18:40:36.180Z,5.50
2018-03-31T18:43:03.351Z,4.95
2018-03-31T18:45:30.868Z,4.57
2018-03-31T18:47:57.991Z,2.80
2018-03-31T18:50:25.097Z,2.40
2018-03-31T18:52:52.222Z,2.28
2018-03-31T18:55:41.139Z,2.12
2018-03-31T18:58:08.298Z,2.53
2018-03-31T19:00:35.464Z,2.53
2018-03-31T19:03:03.387Z,2.30
2018-03-31T19:05:30.472Z,2.60
2018-03-31T19:07:58.342Z,2.25
2018-03-31T19:10:25.502Z,2.58
2018-03-31T19:12:58.503Z,3.45
2018-03-31T19:15:25.614Z,6.35
2018-03-31T19:17:53.568Z,7.62
2018-03-31T19:23:22.600Z,14.40
2018-03-31T19:25:50.507Z,4.15
2018-03-31T19:28:25.163Z,5.80
2018-03-31T19:30:52.280Z,5.03
2018-03-31T19:33:19.365Z,5.53
2018-03-31T19:35:52.142Z,6.80
2018-03-31T19:38:25.352Z,7.20
2018-03-31T19:40:52.487Z,4.20
2018-03-31T19:43:19.612Z,4.10
2018-03-31T19:45:46.728Z,3.05
2018-03-31T19:48:13.858Z,4.00
2018-03-31T19:50:41.738Z,3.30
2018-03-31T19:53:08.866Z,3.25
2018-03-31T19:55:35.996Z,3.42
2018-03-31T19:58:03.126Z,3.45
2018-03-31T20:03:34.453Z,3.00
2018-03-31T20:06:02.344Z,5.10
2018-03-31T20:14:18.016Z,2.65
2018-03-31T20:16:46.018Z,2.87
2018-03-31T20:19:13.661Z,2.70
2018-03-31T20:21:41.544Z,2.90
2018-03-31T20:24:09.215Z,2.80
2018-03-31T20:26:36.355Z,2.80
2018-03-31T20:29:03.488Z,2.90
2018-03-31T20:31:31.381Z,2.70
2018-03-31T20:33:58.497Z,2.20
2018-03-31T20:36:26.408Z,2.87
2018-03-31T20:38:59.672Z,3.10
2018-03-31T20:41:26.831Z,3.90
2018-03-31T20:44:15.817Z,2.97
2018-03-31T20:46:42.930Z,2.55
2018-03-31T20:49:10.101Z,2.60
2018-03-31T20:51:37.272Z,2.75
2018-03-31T20:54:04.352Z,2.80
2018-03-31T20:56:31.514Z,2.53
2018-03-31T20:58:58.628Z,2.70
2018-03-31T21:01:25.788Z,2.70
2018-03-31T21:03:52.904Z,3.20
2018-03-31T21:06:20.004Z,2.58
2018-03-31T21:08:47.868Z,3.17
2018-03-31T21:11:14.996Z,3.47
2018-03-31T21:13:42.220Z,3.58
2018-03-31T21:16:09.361Z,3.75
2018-03-31T21:18:37.009Z,3.62
2018-03-31T21:21:04.816Z,2.85
2018-03-31T21:23:31.932Z,3.50
2018-03-31T21:25:59.082Z,3.55
2018-03-31T21:28:26.212Z,3.95
2018-03-31T21:30:54.125Z,4.53
2018-03-31T21:33:21.266Z,5.55
2018-03-31T21:35:48.429Z,4.00
2018-03-31T21:38:15.544Z,3.22
2018-03-31T21:40:42.676Z,3.65
2018-03-31T21:43:10.536Z,3.20
2018-03-31T21:45:38.431Z,3.53
2018-03-31T21:48:05.581Z,3.97
2018-03-31T21:50:34.865Z,4.28
2018-03-31T21:53:02.034Z,3.87
2018-03-31T21:55:29.187Z,3.80
2018-03-31T21:57:56.273Z,3.95
2018-03-31T22:00:23.430Z,4.00
2018-03-31T22:02:50.557Z,3.70
2018-03-31T22:05:20.771Z,4.10
2018-03-31T22:07:47.878Z,4.50
2018-03-31T22:10:15.013Z,4.07
2018-03-31T22:12:42.129Z,4.03
2018-03-31T22:15:14.871Z,3.97
2018-03-31T22:17:44.189Z,4.70
2018-03-31T22:20:11.347Z,4.75
2018-03-31T22:22:38.469Z,4.50
2018-03-31T22:25:06.432Z,5.50
2018-03-31T22:27:34.379Z,5.82
2018-03-31T22:30:01.465Z,5.40
2018-03-31T22:32:28.588Z,5.62
2018-03-31T22:34:55.696Z,5.20
2018-03-31T22:37:22.798Z,5.57
2018-03-31T22:39:55.073Z,5.40
2018-03-31T22:42:22.218Z,5.32
2018-03-31T22:44:49.307Z,4.55
2018-03-31T22:47:16.440Z,5.40
2018-03-31T22:49:43.559Z,4.75
2018-03-31T22:52:11.415Z,4.93
2018-03-31T22:54:39.259Z,4.60
2018-03-31T22:57:06.444Z,4.43
2018-03-31T22:59:34.354Z,4.20
2018-03-31T23:02:01.442Z,4.22
2018-03-31T23:04:29.350Z,4.37
2018-03-31T23:06:56.467Z,4.10
2018-03-31T23:09:24.340Z,4.10
2018-03-31T23:11:52.457Z,4.18
2018-03-31T23:14:19.566Z,4.28
2018-03-31T23:16:46.696Z,4.37
2018-03-31T23:19:14.579Z,4.30
2018-03-31T23:21:42.472Z,4.03
2018-03-31T23:24:09.555Z,4.55
2018-03-31T23:26:36.666Z,4.10
2018-03-31T23:29:03.803Z,4.40
2018-03-31T23:31:30.978Z,4.60
2018-03-31T23:33:58.473Z,4.45
2018-03-31T23:36:26.310Z,4.60
2018-03-31T23:38:53.436Z,4.40
2018-03-31T23:41:20.596Z,3.80
2018-03-31T23:43:47.769Z,4.10
2018-03-31T23:46:14.884Z,3.90
2018-03-31T23:48:43.091Z,4.50
2018-03-31T23:51:10.207Z,3.90
2018-03-31T23:53:37.578Z,4.18
2018-03-31T23:56:04.691Z,3.80
2018-03-31T23:58:31.808Z,3.95
